Time;durP1;ratioP1;P1;durP2;ratioP2;P2;SDS_P1;SDS_P2;PMS_P1;PMS_P2;Temp;Humidity;BMP_temperature;BMP_pressure;BME280_temperature;BME280_humidity;BME280_pressure;Samples;Min_cycle;Max_cycle;Signal;HPM_P1;HPM_P2
2022/03/02 00:00:55;;;;;;;34.55;22.45;;;;;;;;;;4944120;28;20047;-92
2022/03/02 00:03:21;;;;;;;35.53;23.17;;;;;;;;;;4960623;28;20129;-92
2022/03/02 00:05:46;;;;;;;36.53;22.33;;;;;;;;;;4960213;28;20107;-93
2022/03/02 00:08:14;;;;;;;33.45;22.23;;;;;;;;;;4960440;28;20534;-93
2022/03/02 00:10:40;;;;;;;35.75;22.20;;;;;;;;;;4977522;28;20509;-92
2022/03/02 00:13:06;;;;;;;36.58;23.50;;;;;;;;;;4960591;28;20050;-92
2022/03/02 00:15:32;;;;;;;36.67;22.85;;;;;;;;;;4944242;28;20047;-93
2022/03/02 00:17:58;;;;;;;37.58;23.33;;;;;;;;;;4960490;28;20513;-92
2022/03/02 00:20:24;;;;;;;36.08;22.80;;;;;;;;;;4943983;28;20358;-93
2022/03/02 00:22:52;;;;;;;36.65;23.23;;;;;;;;;;4960274;28;20039;-93
2022/03/02 00:25:18;;;;;;;33.67;22.20;;;;;;;;;;4959991;28;20050;-92
2022/03/02 00:27:44;;;;;;;36.72;21.92;;;;;;;;;;4943743;28;20482;-91
2022/03/02 00:30:11;;;;;;;33.88;23.17;;;;;;;;;;4959548;28;20047;-91
2022/03/02 00:32:37;;;;;;;35.95;23.33;;;;;;;;;;4959885;28;20118;-92
2022/03/02 00:35:04;;;;;;;38.40;23.50;;;;;;;;;;4959524;28;20097;-90
2022/03/02 00:37:30;;;;;;;37.97;22.88;;;;;;;;;;4959572;28;20125;-92
2022/03/02 00:39:56;;;;;;;39.88;23.02;;;;;;;;;;4959543;28;20518;-93
2022/03/02 00:42:22;;;;;;;37.08;24.15;;;;;;;;;;4959792;28;20169;-93
2022/03/02 00:44:48;;;;;;;35.08;23.48;;;;;;;;;;4960054;28;20039;-92
2022/03/02 00:47:14;;;;;;;35.80;23.30;;;;;;;;;;4959959;28;20039;-91
2022/03/02 00:49:40;;;;;;;36.92;23.60;;;;;;;;;;4959635;28;20049;-92
2022/03/02 00:52:09;;;;;;;38.55;25.15;;;;;;;;;;4943541;28;20097;-93
2022/03/02 00:54:35;;;;;;;37.45;23.60;;;;;;;;;;4959646;28;20129;-93
2022/03/02 00:57:01;;;;;;;36.38;24.23;;;;;;;;;;4976572;28;20043;-94
2022/03/02 00:59:27;;;;;;;39.58;25.23;;;;;;;;;;4959282;28;20042;-91
2022/03/02 01:01:53;;;;;;;41.22;24.92;;;;;;;;;;4958243;28;20049;-92
2022/03/02 01:04:19;;;;;;;38.97;24.25;;;;;;;;;;4959357;28;20045;-91
2022/03/02 01:06:45;;;;;;;42.80;25.63;;;;;;;;;;4976505;28;20038;-92
2022/03/02 01:09:12;;;;;;;36.70;24.08;;;;;;;;;;4959516;28;20130;-92
2022/03/02 01:11:38;;;;;;;40.08;26.08;;;;;;;;;;4959455;28;20039;-93
2022/03/02 01:14:04;;;;;;;43.97;26.05;;;;;;;;;;4959201;28;20053;-91
2022/03/02 01:16:30;;;;;;;38.47;24.85;;;;;;;;;;4958939;28;20047;-93
2022/03/02 01:18:56;;;;;;;40.72;26.42;;;;;;;;;;4959374;28;20495;-92
2022/03/02 01:21:22;;;;;;;42.97;26.65;;;;;;;;;;4976173;28;20054;-91
2022/03/02 01:23:48;;;;;;;39.35;25.55;;;;;;;;;;4959126;28;20561;-92
2022/03/02 01:26:14;;;;;;;41.30;26.35;;;;;;;;;;4958653;28;20046;-92
2022/03/02 01:28:40;;;;;;;41.50;26.25;;;;;;;;;;4959793;28;20051;-92
2022/03/02 01:31:06;;;;;;;43.58;26.10;;;;;;;;;;4958928;28;20529;-92
2022/03/02 01:33:32;;;;;;;42.17;26.33;;;;;;;;;;4958869;28;20074;-91
2022/03/02 01:35:58;;;;;;;47.90;26.92;;;;;;;;;;4958326;28;20090;-92
2022/03/02 01:38:25;;;;;;;46.05;28.25;;;;;;;;;;4959082;28;20059;-90
2022/03/02 01:40:51;;;;;;;43.08;28.13;;;;;;;;;;4958759;28;20078;-90
2022/03/02 01:43:17;;;;;;;40.25;25.55;;;;;;;;;;4959021;28;20078;-93
2022/03/02 01:45:43;;;;;;;44.78;27.35;;;;;;;;;;4958692;28;20125;-91
2022/03/02 01:48:09;;;;;;;42.97;27.50;;;;;;;;;;4958727;28;20038;-91
2022/03/02 01:50:35;;;;;;;41.85;26.48;;;;;;;;;;4958143;28;20050;-91
2022/03/02 01:53:01;;;;;;;46.08;28.70;;;;;;;;;;4958140;28;20054;-92
2022/03/02 01:55:27;;;;;;;45.22;27.73;;;;;;;;;;4975352;28;20119;-92
2022/03/02 01:57:53;;;;;;;48.08;28.92;;;;;;;;;;4958339;28;20054;-92
2022/03/02 02:00:22;;;;;;;43.53;27.60;;;;;;;;;;4942298;28;20054;-91
2022/03/02 02:02:48;;;;;;;46.50;28.30;;;;;;;;;;4958309;28;20483;-93
2022/03/02 02:05:15;;;;;;;45.45;28.52;;;;;;;;;;4958597;28;20035;-92
2022/03/02 02:07:41;;;;;;;42.45;28.42;;;;;;;;;;4958167;28;20122;-93
2022/03/02 02:10:08;;;;;;;45.97;29.13;;;;;;;;;;4942110;28;20050;-91
2022/03/02 02:12:34;;;;;;;44.33;29.27;;;;;;;;;;4957975;28;20520;-92
2022/03/02 02:15:00;;;;;;;43.38;28.33;;;;;;;;;;4958057;28;20556;-94
2022/03/02 02:17:27;;;;;;;46.05;29.38;;;;;;;;;;4957716;28;20043;-91
2022/03/02 02:19:53;;;;;;;47.58;29.30;;;;;;;;;;4958033;28;20055;-93
2022/03/02 02:22:19;;;;;;;48.35;29.08;;;;;;;;;;4942010;28;20089;-91
2022/03/02 02:24:45;;;;;;;47.13;29.02;;;;;;;;;;4957951;28;20043;-90
2022/03/02 02:27:12;;;;;;;46.58;28.75;;;;;;;;;;4957598;28;20074;-92
2022/03/02 02:29:39;;;;;;;48.53;29.42;;;;;;;;;;4958072;28;20458;-91
2022/03/02 02:32:05;;;;;;;50.08;30.35;;;;;;;;;;4957859;28;20451;-92
2022/03/02 02:34:31;;;;;;;49.10;29.88;;;;;;;;;;4941750;28;20047;-91
2022/03/02 02:36:58;;;;;;;45.60;28.98;;;;;;;;;;4957514;28;20089;-92
2022/03/02 02:39:27;;;;;;;45.53;30.50;;;;;;;;;;4957538;28;20336;-91
2022/03/02 02:41:54;;;;;;;52.20;30.92;;;;;;;;;;4957789;28;20046;-92
2022/03/02 02:44:20;;;;;;;50.67;29.73;;;;;;;;;;4957541;28;20042;-93
2022/03/02 02:46:46;;;;;;;47.58;28.92;;;;;;;;;;4941468;28;20045;-91
2022/03/02 02:49:12;;;;;;;49.92;29.88;;;;;;;;;;4957636;28;20039;-92
2022/03/02 02:51:38;;;;;;;47.78;29.63;;;;;;;;;;4957174;28;20501;-91
2022/03/02 02:54:04;;;;;;;47.63;29.65;;;;;;;;;;4941601;28;20070;-92
2022/03/02 02:56:30;;;;;;;50.22;29.77;;;;;;;;;;4957254;28;20097;-92
2022/03/02 02:58:56;;;;;;;50.72;29.55;;;;;;;;;;4957815;28;20062;-93
2022/03/02 03:01:22;;;;;;;47.00;30.83;;;;;;;;;;4957226;28;20513;-93
2022/03/02 03:03:49;;;;;;;46.95;29.17;;;;;;;;;;4957492;28;20043;-91
2022/03/02 03:06:15;;;;;;;48.92;30.17;;;;;;;;;;4957004;28;20042;-92
2022/03/02 03:08:40;;;;;;;48.03;29.58;;;;;;;;;;4957350;28;20552;-94
2022/03/02 03:11:07;;;;;;;44.05;28.20;;;;;;;;;;4957216;28;20049;-94
2022/03/02 03:13:33;;;;;;;47.83;29.17;;;;;;;;;;4957231;28;20049;-92
2022/03/02 03:15:59;;;;;;;47.20;29.38;;;;;;;;;;4957117;28;20125;-93
2022/03/02 03:18:25;;;;;;;48.53;29.38;;;;;;;;;;4956989;28;20073;-92
2022/03/02 03:20:51;;;;;;;49.22;27.90;;;;;;;;;;4957291;28;20086;-92
2022/03/02 03:23:17;;;;;;;48.67;29.60;;;;;;;;;;4956839;28;20097;-92
2022/03/02 03:25:43;;;;;;;46.63;29.10;;;;;;;;;;4943877;28;20375;-91
2022/03/02 03:28:09;;;;;;;45.38;28.05;;;;;;;;;;4960908;28;20043;-91
2022/03/02 03:30:36;;;;;;;48.72;29.23;;;;;;;;;;4978251;28;20058;-90
2022/03/02 03:33:04;;;;;;;47.70;28.95;;;;;;;;;;4960882;28;20047;-94
2022/03/02 03:35:30;;;;;;;47.75;28.23;;;;;;;;;;4944752;28;20081;-92
2022/03/02 03:37:56;;;;;;;48.08;29.48;;;;;;;;;;4960729;28;20055;-92
2022/03/02 03:40:23;;;;;;;51.00;30.73;;;;;;;;;;4961102;28;20126;-91
2022/03/02 03:42:50;;;;;;;47.95;29.17;;;;;;;;;;4944745;28;20039;-93
2022/03/02 03:45:16;;;;;;;47.42;29.75;;;;;;;;;;4961082;28;20043;-92
2022/03/02 03:47:42;;;;;;;46.30;28.77;;;;;;;;;;4960903;28;20105;-93
2022/03/02 03:50:09;;;;;;;48.90;29.45;;;;;;;;;;4961026;28;20435;-90
2022/03/02 03:52:35;;;;;;;49.42;28.50;;;;;;;;;;4960651;28;20440;-92
2022/03/02 03:55:02;;;;;;;47.15;28.95;;;;;;;;;;4944706;28;20133;-92
2022/03/02 03:57:28;;;;;;;50.45;30.42;;;;;;;;;;4960238;28;20049;-93
2022/03/02 03:59:54;;;;;;;48.65;29.52;;;;;;;;;;4960484;28;20097;-93
2022/03/02 04:02:20;;;;;;;49.53;29.80;;;;;;;;;;4960210;28;20038;-93
2022/03/02 04:04:46;;;;;;;48.05;29.65;;;;;;;;;;4960528;28;20043;-93
2022/03/02 04:07:12;;;;;;;44.95;28.27;;;;;;;;;;4960109;28;20448;-92
2022/03/02 04:09:37;;;;;;;49.03;28.45;;;;;;;;;;4960225;28;20049;-93
2022/03/02 04:12:04;;;;;;;49.30;29.15;;;;;;;;;;4944414;28;20060;-93
2022/03/02 04:14:30;;;;;;;47.58;29.77;;;;;;;;;;4960491;28;20115;-93
2022/03/02 04:16:56;;;;;;;49.78;29.17;;;;;;;;;;4944425;28;20211;-94
2022/03/02 04:19:22;;;;;;;45.60;29.42;;;;;;;;;;4960238;28;20134;-94
2022/03/02 04:21:48;;;;;;;45.67;28.80;;;;;;;;;;4943988;28;20071;-94
2022/03/02 04:24:14;;;;;;;45.47;28.95;;;;;;;;;;4959897;28;20042;-94
2022/03/02 04:26:40;;;;;;;44.55;28.10;;;;;;;;;;4960020;28;20218;-93
2022/03/02 04:29:06;;;;;;;48.63;28.38;;;;;;;;;;4959960;28;20047;-93
2022/03/02 04:31:32;;;;;;;48.58;29.02;;;;;;;;;;4960068;28;20101;-93
2022/03/02 04:33:58;;;;;;;47.95;29.08;;;;;;;;;;4959765;28;20514;-91
2022/03/02 04:36:24;;;;;;;51.10;30.08;;;;;;;;;;4959673;28;20104;-90
2022/03/02 04:38:50;;;;;;;46.17;28.88;;;;;;;;;;4960381;28;20418;-93
2022/03/02 04:41:16;;;;;;;49.05;29.52;;;;;;;;;;4960211;28;20047;-92
2022/03/02 04:43:43;;;;;;;47.00;28.38;;;;;;;;;;4959975;28;20394;-93
2022/03/02 04:46:09;;;;;;;46.63;28.80;;;;;;;;;;4959699;28;20122;-92
2022/03/02 04:48:35;;;;;;;45.47;28.85;;;;;;;;;;4943522;28;20035;-90
2022/03/02 04:51:01;;;;;;;52.70;30.17;;;;;;;;;;4959743;28;20045;-92
2022/03/02 04:53:27;;;;;;;47.00;28.55;;;;;;;;;;4976773;28;20050;-93
2022/03/02 04:55:53;;;;;;;45.83;27.65;;;;;;;;;;4959922;28;20049;-92
2022/03/02 04:58:19;;;;;;;47.40;29.27;;;;;;;;;;4943564;28;20050;-92
2022/03/02 05:00:45;;;;;;;49.30;29.85;;;;;;;;;;4959343;28;20049;-91
2022/03/02 05:03:11;;;;;;;50.13;29.23;;;;;;;;;;4959184;28;20043;-93
2022/03/02 05:05:38;;;;;;;49.03;29.67;;;;;;;;;;4959791;28;20049;-92
2022/03/02 05:08:05;;;;;;;49.30;30.52;;;;;;;;;;4959441;28;20038;-92
2022/03/02 05:10:32;;;;;;;48.72;29.60;;;;;;;;;;4959992;28;20073;-92
2022/03/02 05:12:58;;;;;;;43.55;26.83;;;;;;;;;;4976935;28;20391;-92
2022/03/02 05:15:25;;;;;;;46.60;28.08;;;;;;;;;;4959248;28;20478;-92
2022/03/02 05:17:51;;;;;;;44.42;27.58;;;;;;;;;;4976377;28;20054;-93
2022/03/02 05:20:19;;;;;;;47.92;28.30;;;;;;;;;;4959113;28;20117;-93
2022/03/02 05:22:45;;;;;;;44.05;26.30;;;;;;;;;;4958751;28;20402;-94
2022/03/02 05:25:13;;;;;;;48.00;29.25;;;;;;;;;;4959265;28;20120;-93
2022/03/02 05:27:39;;;;;;;47.45;27.33;;;;;;;;;;4958999;28;20344;-92
2022/03/02 05:30:06;;;;;;;47.22;28.42;;;;;;;;;;4959011;28;20409;-94
2022/03/02 05:32:32;;;;;;;45.08;27.83;;;;;;;;;;4959085;28;20486;-90
2022/03/02 05:34:58;;;;;;;51.30;28.95;;;;;;;;;;4955570;28;20106;-92
2022/03/02 05:37:24;;;;;;;48.17;28.33;;;;;;;;;;4958774;28;20050;-91
2022/03/02 05:39:50;;;;;;;42.85;27.23;;;;;;;;;;4943167;28;20049;-93
2022/03/02 05:42:16;;;;;;;40.88;25.05;;;;;;;;;;4958725;28;20041;-93
2022/03/02 05:44:42;;;;;;;46.13;28.10;;;;;;;;;;4958716;28;20035;-95
2022/03/02 05:47:08;;;;;;;47.42;26.92;;;;;;;;;;4958232;28;20108;-92
2022/03/02 05:49:34;;;;;;;45.70;27.08;;;;;;;;;;4959057;28;20043;-94
2022/03/02 05:52:00;;;;;;;41.28;25.08;;;;;;;;;;4943435;28;20043;-94
2022/03/02 05:54:26;;;;;;;44.45;26.83;;;;;;;;;;4959116;28;20049;-94
2022/03/02 05:56:52;;;;;;;43.15;26.52;;;;;;;;;;4958789;28;20074;-96
2022/03/02 05:59:18;;;;;;;40.90;25.52;;;;;;;;;;4958722;28;20046;-96
2022/03/02 06:01:44;;;;;;;39.33;25.25;;;;;;;;;;4958770;28;20509;-95
2022/03/02 06:04:12;;;;;;;43.65;25.90;;;;;;;;;;4958950;28;20047;-95
2022/03/02 06:06:38;;;;;;;45.83;26.77;;;;;;;;;;4958781;28;20512;-94
2022/03/02 06:09:06;;;;;;;39.33;25.08;;;;;;;;;;4958579;28;20130;-94
2022/03/02 06:11:32;;;;;;;44.67;27.65;;;;;;;;;;4958546;28;20057;-92
2022/03/02 06:13:58;;;;;;;39.42;25.48;;;;;;;;;;4959192;28;20047;-93
2022/03/02 06:16:25;;;;;;;44.67;26.92;;;;;;;;;;4943205;29;20158;-94
2022/03/02 06:18:53;;;;;;;42.33;26.08;;;;;;;;;;4941370;29;20050;-95
2022/03/02 06:21:23;;;;;;;46.63;26.80;;;;;;;;;;4940197;29;20043;-93
2022/03/02 06:23:49;;;;;;;44.25;26.60;;;;;;;;;;4953119;28;20122;-95
2022/03/02 06:26:15;;;;;;;42.00;24.40;;;;;;;;;;4962999;28;20043;-95
2022/03/02 06:28:41;;;;;;;43.33;27.05;;;;;;;;;;4960353;28;20264;-94
2022/03/02 06:31:07;;;;;;;46.20;26.35;;;;;;;;;;4961296;28;20241;-95
2022/03/02 06:33:33;;;;;;;42.33;26.48;;;;;;;;;;4979554;28;20038;-95
2022/03/02 06:35:59;;;;;;;41.85;26.33;;;;;;;;;;4947072;28;20096;-95
2022/03/02 06:38:27;;;;;;;45.30;26.25;;;;;;;;;;4959848;28;20050;-94
2022/03/02 06:41:25;;;;;;;45.10;27.77;;;;;;;;;;4958578;28;20047;-94
2022/03/02 06:44:19;;;;;;;44.13;27.77;;;;;;;;;;4917686;28;20056;-93
2022/03/02 06:47:05;;;;;;;45.58;28.05;;;;;;;;;;4976031;28;20053;-95
2022/03/02 06:49:54;;;;;;;46.13;28.23;;;;;;;;;;4959133;28;20133;-93
2022/03/02 06:52:21;;;;;;;45.70;27.67;;;;;;;;;;4951518;28;20081;-95
2022/03/02 06:54:48;;;;;;;42.08;27.88;;;;;;;;;;4968700;28;20047;-96
2022/03/02 06:57:16;;;;;;;45.15;27.38;;;;;;;;;;4967245;28;20058;-95
2022/03/02 06:59:43;;;;;;;47.85;28.35;;;;;;;;;;4970276;28;20490;-94
2022/03/02 07:02:11;;;;;;;47.13;26.80;;;;;;;;;;4980894;28;20054;-94
2022/03/02 07:04:41;;;;;;;44.50;27.52;;;;;;;;;;4947529;28;20046;-94
2022/03/02 07:07:08;;;;;;;44.85;26.67;;;;;;;;;;4985295;28;20045;-94
2022/03/02 07:09:34;;;;;;;47.10;29.15;;;;;;;;;;4972333;28;20034;-93
2022/03/02 07:12:01;;;;;;;43.10;26.35;;;;;;;;;;4984966;28;20482;-94
2022/03/02 07:14:31;;;;;;;48.72;29.67;;;;;;;;;;4968445;28;20073;-93
2022/03/02 07:16:58;;;;;;;48.15;27.85;;;;;;;;;;4986405;28;20045;-94
2022/03/02 07:19:25;;;;;;;44.17;26.60;;;;;;;;;;4984681;28;20050;-93
2022/03/02 07:21:51;;;;;;;44.15;26.50;;;;;;;;;;4980097;28;20050;-92
2022/03/02 07:24:18;;;;;;;46.95;28.92;;;;;;;;;;4976380;28;20493;-91
2022/03/02 07:26:45;;;;;;;45.90;27.58;;;;;;;;;;4978030;28;20046;-95
2022/03/02 07:29:13;;;;;;;47.15;28.80;;;;;;;;;;4976548;28;20521;-93
2022/03/02 07:31:39;;;;;;;46.03;26.98;;;;;;;;;;4982585;28;20074;-94
2022/03/02 07:34:07;;;;;;;44.67;27.70;;;;;;;;;;4983068;28;20467;-95
2022/03/02 07:36:33;;;;;;;52.47;29.90;;;;;;;;;;4966949;28;20086;-94
2022/03/02 07:38:59;;;;;;;47.85;28.95;;;;;;;;;;4984961;28;20047;-93
2022/03/02 07:41:25;;;;;;;51.10;28.63;;;;;;;;;;4975760;28;20043;-94
2022/03/02 07:43:53;;;;;;;44.40;27.52;;;;;;;;;;4971619;28;20046;-94
2022/03/02 07:46:19;;;;;;;50.78;28.88;;;;;;;;;;4962508;28;20386;-93
2022/03/02 07:48:45;;;;;;;46.03;28.58;;;;;;;;;;4979852;28;20066;-95
2022/03/02 07:51:11;;;;;;;44.83;27.52;;;;;;;;;;4977857;28;20494;-95
2022/03/02 07:53:40;;;;;;;46.25;28.92;;;;;;;;;;4975026;28;20093;-95
2022/03/02 07:56:08;;;;;;;46.13;30.05;;;;;;;;;;4951169;28;20431;-94
2022/03/02 07:58:35;;;;;;;47.17;28.90;;;;;;;;;;4974780;28;20062;-94
2022/03/02 08:01:03;;;;;;;49.75;28.60;;;;;;;;;;4973629;28;20050;-93
2022/03/02 08:03:30;;;;;;;46.60;28.02;;;;;;;;;;4974205;28;20135;-91
2022/03/02 08:06:00;;;;;;;48.63;29.80;;;;;;;;;;4975781;28;20049;-93
2022/03/02 08:08:26;;;;;;;44.38;27.50;;;;;;;;;;4950465;28;20042;-92
2022/03/02 08:10:53;;;;;;;51.30;29.02;;;;;;;;;;4944461;29;20082;-93
2022/03/02 08:13:19;;;;;;;50.15;30.83;;;;;;;;;;4942304;29;20082;-94
2022/03/02 08:15:45;;;;;;;43.55;28.30;;;;;;;;;;4942980;29;20043;-95
2022/03/02 08:18:11;;;;;;;48.90;29.33;;;;;;;;;;4944138;29;20047;-94
2022/03/02 08:20:41;;;;;;;44.08;28.17;;;;;;;;;;4943668;29;20131;-92
2022/03/02 08:23:07;;;;;;;45.30;28.13;;;;;;;;;;4959309;29;20049;-95
2022/03/02 08:25:33;;;;;;;45.85;28.10;;;;;;;;;;4941903;29;20390;-95
2022/03/02 08:28:01;;;;;;;48.97;29.17;;;;;;;;;;4942488;29;20077;-95
2022/03/02 08:30:30;;;;;;;47.90;28.92;;;;;;;;;;4942031;29;20105;-93
2022/03/02 08:32:56;;;;;;;44.03;28.25;;;;;;;;;;4926652;29;20575;-95
2022/03/02 08:35:23;;;;;;;45.50;26.38;;;;;;;;;;4944133;29;20055;-93
2022/03/02 08:37:49;;;;;;;47.05;27.58;;;;;;;;;;4928058;29;20063;-93
2022/03/02 08:40:15;;;;;;;47.50;29.38;;;;;;;;;;4927324;29;20047;-96
2022/03/02 08:42:42;;;;;;;43.55;28.23;;;;;;;;;;4942945;29;20044;-93
2022/03/02 08:45:09;;;;;;;42.33;28.08;;;;;;;;;;4950804;29;20039;-94
2022/03/02 08:47:35;;;;;;;42.67;27.52;;;;;;;;;;4929916;29;20039;-95
2022/03/02 08:50:01;;;;;;;44.17;27.92;;;;;;;;;;4950385;29;20116;-93
2022/03/02 08:52:29;;;;;;;39.88;27.23;;;;;;;;;;4952385;29;20071;-92
2022/03/02 08:54:56;;;;;;;41.20;26.67;;;;;;;;;;4974365;29;20133;-92
2022/03/02 08:57:23;;;;;;;41.55;26.20;;;;;;;;;;4949976;29;20055;-93
2022/03/02 08:59:53;;;;;;;41.20;26.80;;;;;;;;;;4939120;29;20043;-94
2022/03/02 09:02:21;;;;;;;38.05;25.85;;;;;;;;;;4957723;29;20031;-92
2022/03/02 09:04:48;;;;;;;38.83;24.83;;;;;;;;;;4963600;29;20035;-90
2022/03/02 09:07:17;;;;;;;38.35;26.00;;;;;;;;;;4962603;29;20046;-92
2022/03/02 09:09:44;;;;;;;39.63;26.33;;;;;;;;;;4962677;29;20103;-92
2022/03/02 09:14:44;;;;;;;36.03;25.50;;;;;;;;;;5012845;28;20047;-90
2022/03/02 09:17:13;;;;;;;39.05;26.90;;;;;;;;;;4991137;28;20042;-94
2022/03/02 09:19:39;;;;;;;39.10;26.40;;;;;;;;;;4988468;28;20042;-93
2022/03/02 09:22:08;;;;;;;46.08;25.77;;;;;;;;;;5008928;28;20069;-92
2022/03/02 09:24:40;;;;;;;39.63;26.67;;;;;;;;;;4998742;28;20486;-92
2022/03/02 09:27:11;;;;;;;41.55;26.42;;;;;;;;;;4997261;28;20038;-90
2022/03/02 09:29:49;;;;;;;41.28;26.08;;;;;;;;;;4995426;28;20038;-95
2022/03/02 09:32:17;;;;;;;37.55;24.85;;;;;;;;;;4991274;28;20042;-92
2022/03/02 09:34:46;;;;;;;39.35;26.05;;;;;;;;;;5008359;28;20042;-94
2022/03/02 09:37:14;;;;;;;36.03;24.98;;;;;;;;;;4993741;28;20049;-92
2022/03/02 09:39:40;;;;;;;39.00;25.67;;;;;;;;;;4991974;28;20038;-92
2022/03/02 09:44:52;;;;;;;37.38;23.73;;;;;;;;;;5222683;22;20057;-94
2022/03/02 09:47:24;;;;;;;33.40;22.92;;;;;;;;;;5012364;28;20046;-89
2022/03/02 09:49:58;;;;;;;35.85;23.10;;;;;;;;;;5007852;28;20039;-94
2022/03/02 09:52:34;;;;;;;38.78;24.88;;;;;;;;;;5013857;28;20046;-92
2022/03/02 09:55:03;;;;;;;36.05;23.98;;;;;;;;;;4993186;28;20050;-93
2022/03/02 09:57:31;;;;;;;39.03;24.25;;;;;;;;;;4994900;28;20042;-93
2022/03/02 10:00:05;;;;;;;35.40;22.75;;;;;;;;;;4999713;28;20077;-90
2022/03/02 10:02:40;;;;;;;34.97;23.13;;;;;;;;;;5014247;28;20039;-93
2022/03/02 10:05:15;;;;;;;37.60;24.33;;;;;;;;;;4997505;28;20061;-92
2022/03/02 10:07:45;;;;;;;39.20;23.92;;;;;;;;;;5004660;28;20038;-95
2022/03/02 10:10:23;;;;;;;36.75;23.95;;;;;;;;;;4990607;28;20092;-90
2022/03/02 10:12:52;;;;;;;35.40;22.27;;;;;;;;;;5015742;28;20469;-93
2022/03/02 10:15:19;;;;;;;34.92;23.35;;;;;;;;;;4995378;28;20046;-92
2022/03/02 10:17:48;;;;;;;36.20;22.85;;;;;;;;;;4940248;23;6620848;-93
2022/03/02 10:20:16;;;;;;;34.83;21.85;;;;;;;;;;5010009;28;20050;-91
2022/03/02 10:22:47;;;;;;;36.25;23.55;;;;;;;;;;4997473;28;20130;-94
2022/03/02 10:25:18;;;;;;;32.67;22.42;;;;;;;;;;4997192;28;20034;-92
2022/03/02 10:28:11;;;;;;;34.08;21.90;;;;;;;;;;5012072;28;20130;-93
2022/03/02 10:30:38;;;;;;;35.42;22.55;;;;;;;;;;5009160;28;20052;-93
2022/03/02 10:35:56;;;;;;;32.13;21.85;;;;;;;;;;5158199;22;20042;-95
2022/03/02 10:38:38;;;;;;;34.78;22.70;;;;;;;;;;4999410;28;20042;-89
2022/03/02 10:41:07;;;;;;;33.85;23.13;;;;;;;;;;5004382;28;20046;-93
2022/03/02 10:43:55;;;;;;;35.67;23.27;;;;;;;;;;4988128;28;20319;-96
2022/03/02 10:46:22;;;;;;;36.40;22.48;;;;;;;;;;5011533;28;20038;-92
2022/03/02 10:49:02;;;;;;;36.78;22.35;;;;;;;;;;4997868;28;20077;-92
2022/03/02 10:51:29;;;;;;;35.17;22.73;;;;;;;;;;4997936;28;20038;-92
2022/03/02 10:53:56;;;;;;;37.58;22.73;;;;;;;;;;4981063;28;20038;-92
2022/03/02 10:59:02;;;;;;;31.35;20.73;;;;;;;;;;5107146;23;20070;-93
2022/03/02 11:01:31;;;;;;;32.50;21.77;;;;;;;;;;5039256;23;20054;-95
2022/03/02 11:04:00;;;;;;;34.17;22.13;;;;;;;;;;5012703;28;20105;-92
2022/03/02 11:06:27;;;;;;;32.17;20.45;;;;;;;;;;5005320;28;20049;-94
2022/03/02 11:09:06;;;;;;;;;;;;;;;;;;;;;
2022/03/02 11:11:36;;;;;;;31.20;19.95;;;;;;;;;;5012553;28;20054;-93
2022/03/02 11:14:03;;;;;;;33.38;20.58;;;;;;;;;;4997291;28;20057;-91
2022/03/02 11:16:35;;;;;;;31.30;20.67;;;;;;;;;;4999035;28;20065;-89
2022/03/02 11:33:27;;;;;;;33.38;21.15;;;;;;;;;;5459653;22;20042;-92
2022/03/02 11:38:42;;;;;;;30.73;20.42;;;;;;;;;;5700296;23;20041;-93
2022/03/02 11:46:23;;;;;;;32.60;20.02;;;;;;;;;;5459762;23;20066;-92
2022/03/02 11:48:51;;;;;;;31.58;19.95;;;;;;;;;;5002083;28;20065;-93
2022/03/02 11:51:26;;;;;;;29.15;19.48;;;;;;;;;;5000196;28;20030;-89
2022/03/02 11:53:56;;;;;;;30.65;18.65;;;;;;;;;;4983098;28;20046;-91
2022/03/02 11:56:23;;;;;;;30.77;19.15;;;;;;;;;;5017591;28;20026;-91
2022/03/02 11:58:56;;;;;;;28.40;18.83;;;;;;;;;;5015758;28;20057;-92
2022/03/02 12:06:40;;;;;;;28.85;19.17;;;;;;;;;;5493562;23;20061;-92
2022/03/02 12:09:09;;;;;;;32.38;19.17;;;;;;;;;;5022127;28;20041;-92
2022/03/02 12:19:24;;;;;;;26.70;17.73;;;;;;;;;;5345492;23;20042;-91
2022/03/02 12:21:59;;;;;;;27.77;17.95;;;;;;;;;;5453209;23;20138;-92
2022/03/02 12:24:33;;;;;;;28.88;18.83;;;;;;;;;;5011234;28;20082;-92
2022/03/02 12:27:10;;;;;;;30.02;18.55;;;;;;;;;;5011449;28;20049;-92
2022/03/02 12:29:41;;;;;;;30.40;17.92;;;;;;;;;;5014846;28;20060;-94
2022/03/02 12:32:14;;;;;;;28.38;19.50;;;;;;;;;;5014694;28;20114;-91
2022/03/02 12:35:06;;;;;;;28.05;19.23;;;;;;;;;;5016475;28;20081;-93
2022/03/02 12:37:42;;;;;;;28.30;19.58;;;;;;;;;;5017060;28;20063;-91
2022/03/02 12:40:12;;;;;;;25.73;17.98;;;;;;;;;;5016714;28;20061;-92
2022/03/02 13:09:56;;;;;;;29.17;18.48;;;;;;;;;;5810227;22;20061;-93
2022/03/02 13:12:28;;;;;;;30.40;18.70;;;;;;;;;;5005831;28;20122;-94
2022/03/02 13:14:54;;;;;;;28.38;20.02;;;;;;;;;;4981144;28;20046;-94
2022/03/02 13:17:21;;;;;;;27.95;19.30;;;;;;;;;;4981573;28;20088;-94
2022/03/02 13:19:48;;;;;;;28.15;18.20;;;;;;;;;;4983734;28;20042;-93
2022/03/02 13:22:25;;;;;;;29.02;19.10;;;;;;;;;;4965128;28;20093;-93
2022/03/02 13:24:53;;;;;;;30.08;19.10;;;;;;;;;;4997453;28;20041;-91
2022/03/02 13:27:19;;;;;;;25.55;18.73;;;;;;;;;;4980751;28;20116;-93
2022/03/02 13:29:49;;;;;;;27.83;19.15;;;;;;;;;;4982541;28;20042;-91
2022/03/02 13:32:15;;;;;;;28.58;18.38;;;;;;;;;;4996350;28;20412;-94
2022/03/02 13:35:01;;;;;;;27.98;19.63;;;;;;;;;;4979064;28;20125;-93
2022/03/02 13:37:47;;;;;;;29.80;19.55;;;;;;;;;;4978718;28;20042;-91
2022/03/02 13:40:36;;;;;;;25.13;17.75;;;;;;;;;;4983747;28;20049;-92
2022/03/02 13:43:22;;;;;;;31.38;19.13;;;;;;;;;;4984720;28;20129;-92
2022/03/02 13:46:08;;;;;;;29.48;19.98;;;;;;;;;;4968973;28;20085;-91
2022/03/02 13:48:34;;;;;;;29.80;18.98;;;;;;;;;;4995428;28;20199;-93
2022/03/02 13:51:03;;;;;;;26.85;18.23;;;;;;;;;;4978739;28;20070;-91
2022/03/02 13:53:33;;;;;;;28.52;18.35;;;;;;;;;;4978246;28;20133;-93
2022/03/02 13:56:04;;;;;;;27.67;18.67;;;;;;;;;;4995299;28;20046;-92
2022/03/02 13:58:30;;;;;;;28.95;18.30;;;;;;;;;;4995812;28;20410;-94
2022/03/02 14:01:10;;;;;;;26.77;18.05;;;;;;;;;;4979024;28;20077;-90
2022/03/02 14:03:39;;;;;;;28.73;18.48;;;;;;;;;;4996915;28;20092;-93
2022/03/02 14:06:07;;;;;;;27.77;18.73;;;;;;;;;;4978419;28;20129;-93
2022/03/02 14:08:50;;;;;;;25.67;18.48;;;;;;;;;;4995410;28;20482;-94
2022/03/02 14:11:34;;;;;;;30.60;18.17;;;;;;;;;;4962528;28;20085;-93
2022/03/02 14:14:27;;;;;;;27.02;18.92;;;;;;;;;;4995310;28;20057;-92
2022/03/02 14:16:54;;;;;;;30.58;20.95;;;;;;;;;;4976144;28;20109;-91
2022/03/02 14:19:21;;;;;;;29.48;19.27;;;;;;;;;;4995703;28;20046;-93
2022/03/02 14:21:53;;;;;;;29.65;19.20;;;;;;;;;;4979106;28;20046;-91
2022/03/02 14:24:19;;;;;;;27.50;18.15;;;;;;;;;;4981111;28;20370;-93
2022/03/02 14:26:52;;;;;;;27.08;18.60;;;;;;;;;;4977773;28;20042;-93
2022/03/02 14:29:20;;;;;;;29.80;19.27;;;;;;;;;;4994810;28;20042;-92
2022/03/02 14:31:56;;;;;;;31.23;18.63;;;;;;;;;;4981269;28;20054;-94
2022/03/02 14:34:22;;;;;;;29.05;19.48;;;;;;;;;;4979131;28;20497;-94
2022/03/02 14:36:48;;;;;;;30.45;18.90;;;;;;;;;;4980402;28;20053;-93
2022/03/02 14:39:14;;;;;;;29.48;19.77;;;;;;;;;;4977244;28;20046;-91
2022/03/02 14:41:40;;;;;;;27.90;18.65;;;;;;;;;;4977259;28;20486;-93
2022/03/02 14:44:14;;;;;;;26.98;19.27;;;;;;;;;;4994843;28;20477;-93
2022/03/02 14:46:40;;;;;;;28.38;18.05;;;;;;;;;;4977784;28;20070;-92
2022/03/02 14:49:07;;;;;;;28.08;19.10;;;;;;;;;;4977959;28;20058;-92
2022/03/02 14:51:33;;;;;;;29.30;19.23;;;;;;;;;;4994619;28;20494;-91
2022/03/02 14:53:59;;;;;;;29.70;19.77;;;;;;;;;;4977326;28;20050;-91
2022/03/02 14:56:31;;;;;;;28.90;19.13;;;;;;;;;;4994797;28;20557;-90
2022/03/02 14:58:57;;;;;;;26.30;17.92;;;;;;;;;;4961458;28;20046;-92
2022/03/02 15:01:29;;;;;;;30.80;19.30;;;;;;;;;;4977324;28;20046;-93
2022/03/02 15:03:57;;;;;;;28.10;18.73;;;;;;;;;;4994536;28;20035;-92
2022/03/02 15:06:27;;;;;;;29.52;20.23;;;;;;;;;;4977157;28;20042;-93
2022/03/02 15:08:54;;;;;;;29.20;18.08;;;;;;;;;;4977101;28;20486;-92
2022/03/02 15:11:21;;;;;;;26.92;18.15;;;;;;;;;;4977092;28;20410;-91
2022/03/02 15:16:46;;;;;;;30.35;19.08;;;;;;;;;;4999176;28;20046;-92
2022/03/02 15:19:12;;;;;;;30.85;19.35;;;;;;;;;;4977304;28;20047;-94
2022/03/02 15:21:39;;;;;;;27.65;19.27;;;;;;;;;;4993666;28;20042;-95
2022/03/02 15:24:05;;;;;;;26.88;18.38;;;;;;;;;;4977543;28;20104;-95
2022/03/02 15:26:31;;;;;;;28.10;18.15;;;;;;;;;;4994358;28;20088;-93
2022/03/02 15:29:08;;;;;;;29.00;19.45;;;;;;;;;;4994867;28;20038;-93
2022/03/02 15:31:48;;;;;;;27.80;18.90;;;;;;;;;;4977346;28;20042;-91
2022/03/02 15:34:15;;;;;;;28.95;19.65;;;;;;;;;;4977796;28;20050;-93
2022/03/02 15:36:51;;;;;;;29.65;19.08;;;;;;;;;;4995152;28;20548;-92
2022/03/02 15:39:24;;;;;;;27.23;18.00;;;;;;;;;;4977267;28;20038;-93
2022/03/02 15:41:57;;;;;;;31.33;19.55;;;;;;;;;;4973753;28;20054;-91